createdAt,value
2023-08-05T00:00:49.078Z,26.53
2023-08-05T00:03:28.289Z,26.46
2023-08-05T00:05:56.804Z,26.34
2023-08-05T00:08:25.927Z,26.28
2023-08-05T00:10:54.942Z,26.20
2023-08-05T00:13:23.397Z,26.14
2023-08-05T00:15:52.537Z,26.06
2023-08-05T00:18:21.116Z,25.97
2023-08-05T00:20:50.973Z,25.88
2023-08-05T00:23:20.744Z,25.85
2023-08-05T00:25:49.106Z,25.80
2023-08-05T00:28:17.477Z,25.74
2023-08-05T00:30:46.051Z,25.67
2023-08-05T00:33:14.492Z,25.61
2023-08-05T00:35:42.861Z,25.56
2023-08-05T00:38:11.393Z,25.48
2023-08-05T00:40:39.932Z,25.41
2023-08-05T00:43:08.278Z,25.35
2023-08-05T00:45:36.899Z,25.32
2023-08-05T00:48:05.639Z,25.30
2023-08-05T00:50:35.353Z,25.22
2023-08-05T00:53:03.920Z,25.19
2023-08-05T00:55:32.628Z,25.15
2023-08-05T00:58:01.065Z,25.09
2023-08-05T01:00:29.464Z,25.00
2023-08-05T01:02:58.690Z,24.96
2023-08-05T01:05:27.727Z,24.92
2023-08-05T01:07:56.403Z,24.88
2023-08-05T01:10:25.389Z,24.82
2023-08-05T01:12:53.762Z,24.83
2023-08-05T01:15:22.209Z,24.80
2023-08-05T01:17:54.775Z,24.75
2023-08-05T01:20:28.223Z,24.72
2023-08-05T01:22:59.994Z,24.60
2023-08-05T01:25:30.342Z,24.55
2023-08-05T01:28:00.506Z,24.49
2023-08-05T01:30:30.352Z,24.41
2023-08-05T01:33:01.005Z,24.36
2023-08-05T01:35:29.621Z,24.31
2023-08-05T01:37:58.113Z,24.30
2023-08-05T01:40:29.702Z,24.27
2023-08-05T01:43:01.803Z,24.25
2023-08-05T01:45:30.196Z,24.26
2023-08-05T01:47:58.921Z,24.24
2023-08-05T01:50:27.464Z,24.15
2023-08-05T01:52:55.891Z,24.14
2023-08-05T01:55:24.340Z,24.13
2023-08-05T01:57:52.720Z,24.14
2023-08-05T02:00:24.329Z,24.10
2023-08-05T02:02:53.006Z,24.01
2023-08-05T02:05:21.561Z,23.99
2023-08-05T02:07:50.064Z,23.96
2023-08-05T02:10:18.584Z,23.94
2023-08-05T02:12:47.093Z,23.92
2023-08-05T02:15:15.540Z,23.89
2023-08-05T02:17:43.991Z,23.84
2023-08-05T02:20:12.867Z,23.77
2023-08-05T02:22:41.475Z,23.76
2023-08-05T02:25:10.013Z,23.76
2023-08-05T02:27:38.414Z,23.75
2023-08-05T02:30:07.732Z,23.68
2023-08-05T02:32:36.200Z,23.59
2023-08-05T02:35:05.164Z,23.56
2023-08-05T02:37:33.569Z,23.51
2023-08-05T02:40:01.989Z,23.42
2023-08-05T02:42:30.425Z,23.36
2023-08-05T02:44:59.568Z,23.30
2023-08-05T02:47:27.982Z,23.25
2023-08-05T02:49:57.700Z,23.23
2023-08-05T02:52:26.453Z,23.21
2023-08-05T02:54:54.988Z,23.19
2023-08-05T02:57:23.449Z,23.18
2023-08-05T02:59:51.942Z,23.12
2023-08-05T03:02:20.415Z,23.04
2023-08-05T03:04:48.888Z,23.00
2023-08-05T03:07:17.537Z,22.92
2023-08-05T03:09:45.831Z,22.90
2023-08-05T03:12:14.250Z,22.86
2023-08-05T03:14:42.807Z,22.87
2023-08-05T03:17:11.848Z,22.87
2023-08-05T03:19:40.424Z,22.88
2023-08-05T03:22:09.380Z,22.90
2023-08-05T03:24:39.763Z,22.93
2023-08-05T03:27:08.780Z,22.96
2023-08-05T03:29:38.099Z,22.91
2023-08-05T03:32:07.361Z,22.88
2023-08-05T03:34:35.989Z,22.90
2023-08-05T03:37:05.430Z,22.91
2023-08-05T03:39:34.002Z,22.90
2023-08-05T03:42:02.436Z,22.90
2023-08-05T03:44:31.431Z,22.86
2023-08-05T03:47:00.520Z,22.89
2023-08-05T03:49:28.954Z,22.93
2023-08-05T03:51:57.631Z,22.93
2023-08-05T03:54:26.035Z,22.97
2023-08-05T03:56:54.475Z,22.92
2023-08-05T03:59:24.640Z,22.87
2023-08-05T04:01:53.620Z,22.90
2023-08-05T04:04:22.577Z,22.94
2023-08-05T04:06:51.337Z,23.01
2023-08-05T04:09:20.672Z,23.05
2023-08-05T04:11:52.641Z,23.06
2023-08-05T04:14:22.178Z,23.12
2023-08-05T04:16:50.911Z,23.18
2023-08-05T04:19:21.814Z,23.20
2023-08-05T04:21:52.951Z,23.26
2023-08-05T04:24:23.820Z,23.28
2023-08-05T04:26:52.646Z,23.29
2023-08-05T04:29:24.263Z,23.29
2023-08-05T04:31:53.885Z,23.31
2023-08-05T04:34:22.333Z,23.36
2023-08-05T04:36:52.112Z,23.41
2023-08-05T04:39:21.476Z,23.48
2023-08-05T04:41:49.875Z,23.52
2023-08-05T04:44:19.569Z,23.56
2023-08-05T04:46:48.059Z,23.64
2023-08-05T04:49:16.585Z,23.67
2023-08-05T04:51:45.074Z,23.73
2023-08-05T04:54:13.533Z,23.82
2023-08-05T04:56:42.013Z,23.88
2023-08-05T04:59:10.468Z,23.95
2023-08-05T05:01:38.825Z,24.01
2023-08-05T05:04:07.331Z,24.06
2023-08-05T05:06:35.743Z,24.12
2023-08-05T05:09:05.062Z,24.16
2023-08-05T05:11:33.436Z,24.25
2023-08-05T05:14:01.926Z,24.34
2023-08-05T05:16:30.330Z,24.35
2023-08-05T05:18:58.714Z,24.34
2023-08-05T05:21:27.135Z,24.39
2023-08-05T05:23:55.589Z,24.41
2023-08-05T05:26:24.069Z,24.45
2023-08-05T05:28:52.527Z,24.50
2023-08-05T05:31:23.865Z,24.57
2023-08-05T05:33:52.755Z,24.61
2023-08-05T05:36:21.155Z,24.64
2023-08-05T05:38:49.590Z,24.69
2023-08-05T05:41:18.169Z,24.72
2023-08-05T05:43:46.597Z,24.76
2023-08-05T05:46:16.113Z,24.81
2023-08-05T05:48:44.533Z,24.87
2023-08-05T05:51:14.155Z,24.92
2023-08-05T05:53:42.593Z,24.94
2023-08-05T05:56:11.222Z,24.92
2023-08-05T05:58:39.654Z,25.01
2023-08-05T06:01:08.096Z,25.06
2023-08-05T06:03:36.688Z,25.07
2023-08-05T06:06:05.286Z,25.09
2023-08-05T06:08:35.293Z,25.13
2023-08-05T06:11:04.730Z,25.16
2023-08-05T06:13:33.531Z,25.21
2023-08-05T06:16:02.230Z,25.25
2023-08-05T06:18:30.689Z,25.29
2023-08-05T06:20:59.112Z,25.31
2023-08-05T06:23:27.825Z,25.37
2023-08-05T06:25:56.250Z,25.44
2023-08-05T06:28:24.870Z,25.51
2023-08-05T06:30:56.431Z,25.59
2023-08-05T06:33:24.856Z,25.63
2023-08-05T06:35:53.262Z,25.69
2023-08-05T06:38:21.791Z,25.73
2023-08-05T06:40:52.841Z,25.75
2023-08-05T06:43:21.497Z,25.81
2023-08-05T06:45:49.929Z,25.88
2023-08-05T06:48:18.328Z,25.92
2023-08-05T06:50:46.800Z,25.95
2023-08-05T06:53:15.227Z,25.97
2023-08-05T06:55:43.558Z,26.00
2023-08-05T06:58:11.954Z,26.01
2023-08-05T07:00:40.405Z,26.05
2023-08-05T07:03:08.794Z,26.12
2023-08-05T07:05:37.726Z,26.18
2023-08-05T07:08:06.478Z,26.24
2023-08-05T07:10:34.865Z,26.30
2023-08-05T07:13:07.184Z,26.37
2023-08-05T07:15:38.477Z,26.45
2023-08-05T07:18:06.945Z,26.49
2023-08-05T07:20:35.409Z,26.55
2023-08-05T07:23:03.784Z,26.61
2023-08-05T07:25:32.259Z,26.64
2023-08-05T07:28:00.668Z,26.71
2023-08-05T07:30:29.309Z,26.78
2023-08-05T07:32:57.860Z,26.82
2023-08-05T07:35:29.805Z,26.87
2023-08-05T07:37:58.260Z,26.93
2023-08-05T07:40:27.264Z,27.00
2023-08-05T07:42:55.744Z,27.04
2023-08-05T07:45:24.358Z,27.10
2023-08-05T07:47:53.380Z,27.15
2023-08-05T07:50:24.204Z,27.21
2023-08-05T07:52:52.857Z,27.27
2023-08-05T07:55:21.429Z,27.33
2023-08-05T07:57:49.847Z,27.42
2023-08-05T08:00:18.484Z,27.47
2023-08-05T08:02:46.925Z,27.54
2023-08-05T08:05:15.949Z,27.61
2023-08-05T08:07:48.274Z,27.68
2023-08-05T08:10:17.453Z,27.73
2023-08-05T08:12:48.047Z,27.77
2023-08-05T08:15:16.608Z,27.82
2023-08-05T08:17:45.127Z,27.85
2023-08-05T08:20:13.904Z,27.87
2023-08-05T08:22:42.248Z,27.92
2023-08-05T08:25:10.718Z,27.99
2023-08-05T08:27:39.154Z,28.05
2023-08-05T08:30:08.024Z,28.11
2023-08-05T08:32:36.490Z,28.18
2023-08-05T08:35:05.459Z,28.23
2023-08-05T08:37:34.161Z,28.29
2023-08-05T08:40:04.081Z,28.35
2023-08-05T08:42:32.604Z,28.43
2023-08-05T08:45:01.773Z,28.48
2023-08-05T08:47:30.376Z,28.50
2023-08-05T08:49:59.424Z,28.53
2023-08-05T08:52:28.658Z,28.58
2023-08-05T08:54:57.326Z,28.64
2023-08-05T08:57:25.724Z,28.72
2023-08-05T08:59:54.069Z,28.79
2023-08-05T09:02:26.400Z,28.84
2023-08-05T09:04:55.639Z,28.90
2023-08-05T09:07:28.618Z,28.94
2023-08-05T09:09:58.845Z,28.99
2023-08-05T09:12:27.381Z,29.03
2023-08-05T09:14:57.972Z,29.08
2023-08-05T09:17:28.313Z,29.12
2023-08-05T09:19:56.813Z,29.18
2023-08-05T09:22:25.404Z,29.20
2023-08-05T09:25:02.134Z,29.24
2023-08-05T09:27:52.195Z,29.28
2023-08-05T09:30:25.333Z,29.33
2023-08-05T09:32:54.342Z,29.41
2023-08-05T09:35:25.032Z,29.46
2023-08-05T09:37:54.510Z,29.53
2023-08-05T09:40:27.328Z,29.61
2023-08-05T09:43:01.351Z,29.68
2023-08-05T09:45:31.949Z,29.74
2023-08-05T09:48:11.861Z,29.83
2023-08-05T09:50:43.030Z,29.93
2023-08-05T09:53:15.226Z,30.01
2023-08-05T09:55:45.206Z,30.09
2023-08-05T09:58:14.692Z,30.16
2023-08-05T10:00:43.970Z,30.22
2023-08-05T10:03:15.401Z,30.24
2023-08-05T10:05:46.922Z,30.25
2023-08-05T10:08:15.575Z,30.29
2023-08-05T10:10:44.325Z,30.39
2023-08-05T10:13:21.529Z,30.50
2023-08-05T10:15:52.641Z,30.56
2023-08-05T10:18:22.191Z,30.66
2023-08-05T10:20:52.550Z,30.72
2023-08-05T10:23:25.112Z,30.77
2023-08-05T10:26:01.628Z,30.82
2023-08-05T10:28:35.923Z,30.94
2023-08-05T10:31:05.838Z,31.03
2023-08-05T10:34:10.185Z,31.10
2023-08-05T10:36:43.989Z,31.20
2023-08-05T10:39:44.784Z,31.25
2023-08-05T10:42:22.040Z,31.32
2023-08-05T10:44:51.276Z,31.39
2023-08-05T10:47:22.346Z,31.48
2023-08-05T10:50:03.449Z,31.57
2023-08-05T10:52:36.636Z,31.69
2023-08-05T10:55:09.687Z,31.78
2023-08-05T10:57:40.617Z,31.83
2023-08-05T11:00:18.290Z,31.91
2023-08-05T11:02:48.652Z,31.96
2023-08-05T11:05:17.961Z,32.03
2023-08-05T11:07:47.078Z,32.11
2023-08-05T11:10:15.466Z,32.17
2023-08-05T11:12:43.958Z,32.24
2023-08-05T11:15:12.336Z,32.30
2023-08-05T11:17:57.261Z,32.31
2023-08-05T11:20:33.138Z,32.39
2023-08-05T11:23:02.162Z,32.47
2023-08-05T11:25:31.349Z,32.62
2023-08-05T11:28:00.219Z,32.68
2023-08-05T11:30:29.717Z,32.75
2023-08-05T11:32:59.759Z,32.86
2023-08-05T11:35:28.401Z,33.01
2023-08-05T11:37:58.288Z,33.13
2023-08-05T11:40:26.911Z,33.27
2023-08-05T11:42:56.975Z,33.40
2023-08-05T11:45:25.748Z,33.38
2023-08-05T11:47:54.286Z,33.44
2023-08-05T11:50:33.828Z,33.46
2023-08-05T11:53:09.029Z,33.54
2023-08-05T11:55:38.375Z,33.59
2023-08-05T11:58:07.702Z,33.54
2023-08-05T12:00:36.111Z,33.42
2023-08-05T12:03:05.632Z,33.43
2023-08-05T12:05:34.316Z,33.52
2023-08-05T12:08:02.808Z,33.68
2023-08-05T12:10:31.437Z,33.84
2023-08-05T12:13:03.085Z,34.05
2023-08-05T12:15:31.815Z,34.32
2023-08-05T12:18:02.568Z,34.44
2023-08-05T12:20:37.978Z,34.58
2023-08-05T12:23:08.947Z,34.74
2023-08-05T12:25:37.305Z,34.83
2023-08-05T12:28:06.941Z,34.98
2023-08-05T12:30:35.625Z,35.07
2023-08-05T12:33:07.536Z,34.96
2023-08-05T12:35:36.984Z,34.77
2023-08-05T12:38:05.394Z,34.62
2023-08-05T12:40:33.942Z,34.54
2023-08-05T12:43:02.461Z,34.58
2023-08-05T12:45:30.935Z,34.82
2023-08-05T12:47:59.757Z,35.04
2023-08-05T12:50:28.379Z,35.26
2023-08-05T12:52:56.938Z,35.46
2023-08-05T12:55:25.299Z,35.60
2023-08-05T12:57:53.693Z,35.73
2023-08-05T13:00:22.074Z,35.89
2023-08-05T13:02:50.569Z,36.08
2023-08-05T13:05:19.215Z,36.40
2023-08-05T13:07:47.695Z,36.65
2023-08-05T13:10:16.022Z,36.85
2023-08-05T13:12:44.407Z,37.14
2023-08-05T13:15:12.904Z,37.47
2023-08-05T13:17:41.358Z,37.62
2023-08-05T13:20:09.939Z,37.94
2023-08-05T13:22:38.360Z,38.31
2023-08-05T13:25:07.010Z,38.54
2023-08-05T13:27:35.789Z,38.62
2023-08-05T13:30:04.535Z,38.81
2023-08-05T13:32:32.957Z,39.01
2023-08-05T13:35:01.380Z,39.05
2023-08-05T13:37:29.806Z,39.12
2023-08-05T13:39:58.254Z,39.36
2023-08-05T13:42:26.806Z,39.43
2023-08-05T13:44:55.214Z,39.46
2023-08-05T13:47:23.708Z,39.60
2023-08-05T13:49:52.102Z,39.70
2023-08-05T13:52:20.531Z,39.79
2023-08-05T13:54:49.016Z,40.02
2023-08-05T13:57:17.441Z,40.20
2023-08-05T13:59:45.799Z,40.21
2023-08-05T14:02:14.231Z,40.20
2023-08-05T14:04:45.824Z,40.31
2023-08-05T14:07:14.217Z,40.50
2023-08-05T14:09:42.671Z,40.63
2023-08-05T14:12:11.129Z,40.72
2023-08-05T14:14:39.620Z,40.79
2023-08-05T14:17:08.016Z,40.81
2023-08-05T14:19:36.556Z,40.74
2023-08-05T14:22:05.252Z,40.75
2023-08-05T14:24:33.656Z,40.64
2023-08-05T14:27:02.252Z,40.70
2023-08-05T14:29:30.645Z,40.79
2023-08-05T14:31:59.123Z,40.78
2023-08-05T14:34:30.732Z,40.98
2023-08-05T14:36:59.066Z,40.85
2023-08-05T14:39:27.569Z,40.58
2023-08-05T14:41:56.199Z,40.56
2023-08-05T14:44:25.494Z,40.60
2023-08-05T14:46:53.968Z,40.37
2023-08-05T14:49:22.325Z,40.14
2023-08-05T14:51:51.230Z,40.06
2023-08-05T14:54:19.978Z,39.89
2023-08-05T14:56:48.637Z,39.96
2023-08-05T14:59:17.144Z,40.11
2023-08-05T15:01:45.548Z,39.95
2023-08-05T15:04:13.996Z,39.89
2023-08-05T15:06:42.435Z,39.62
2023-08-05T15:09:12.448Z,39.13
2023-08-05T15:11:40.865Z,38.75
2023-08-05T15:14:10.029Z,38.51
2023-08-05T15:16:38.444Z,38.19
2023-08-05T15:19:06.954Z,37.75
2023-08-05T15:21:35.377Z,37.42
2023-08-05T15:24:03.970Z,37.09
2023-08-05T15:26:32.443Z,36.76
2023-08-05T15:29:04.599Z,36.54
2023-08-05T15:31:33.066Z,36.32
2023-08-05T15:34:01.409Z,36.02
2023-08-05T15:36:29.912Z,35.80
2023-08-05T15:38:58.327Z,35.55
2023-08-05T15:41:26.845Z,35.39
2023-08-05T15:43:55.333Z,35.26
2023-08-05T15:46:23.783Z,35.16
2023-08-05T15:48:52.196Z,35.07
2023-08-05T15:51:22.638Z,34.94
2023-08-05T15:53:50.980Z,34.81
2023-08-05T15:56:19.551Z,34.81
2023-08-05T15:58:48.124Z,34.85
2023-08-05T16:01:16.654Z,34.85
2023-08-05T16:03:45.078Z,34.85
2023-08-05T16:06:13.831Z,34.90
2023-08-05T16:08:42.256Z,34.93
2023-08-05T16:11:13.756Z,34.98
2023-08-05T16:13:42.245Z,34.98
2023-08-05T16:16:12.741Z,34.84
2023-08-05T16:18:41.308Z,34.69
2023-08-05T16:21:21.685Z,34.48
2023-08-05T16:23:55.575Z,34.37
2023-08-05T16:26:25.793Z,34.27
2023-08-05T16:28:54.972Z,34.13
2023-08-05T16:31:25.376Z,34.00
2023-08-05T16:33:53.918Z,33.85
2023-08-05T16:36:23.882Z,33.73
2023-08-05T16:38:52.583Z,33.60
2023-08-05T16:41:22.894Z,33.45
2023-08-05T16:43:51.932Z,33.34
2023-08-05T16:46:22.534Z,33.23
2023-08-05T16:48:52.756Z,33.11
2023-08-05T16:51:21.158Z,32.99
2023-08-05T16:53:49.519Z,32.86
2023-08-05T16:56:17.927Z,32.75
2023-08-05T16:58:46.613Z,32.66
2023-08-05T17:01:15.176Z,32.54
2023-08-05T17:03:43.700Z,32.43
2023-08-05T17:06:12.034Z,32.34
2023-08-05T17:08:40.789Z,32.25
2023-08-05T17:11:09.672Z,32.14
2023-08-05T17:13:38.033Z,32.04
2023-08-05T17:16:06.500Z,31.92
2023-08-05T17:18:34.928Z,31.83
2023-08-05T17:21:03.379Z,31.74
2023-08-05T17:23:31.883Z,31.65
2023-08-05T17:26:00.315Z,31.62
2023-08-05T17:28:28.689Z,31.54
2023-08-05T17:30:57.215Z,31.49
2023-08-05T17:33:25.656Z,31.41
2023-08-05T17:35:54.148Z,31.35
2023-08-05T17:38:24.090Z,31.28
2023-08-05T17:40:53.801Z,31.18
2023-08-05T17:43:22.358Z,31.11
2023-08-05T17:46:00.302Z,31.01
2023-08-05T17:48:28.794Z,30.91
2023-08-05T17:50:59.151Z,30.84
2023-08-05T17:53:27.695Z,30.78
2023-08-05T17:55:56.144Z,30.72
2023-08-05T17:58:24.601Z,30.66
2023-08-05T18:00:53.287Z,30.64
2023-08-05T18:03:21.908Z,30.59
2023-08-05T18:05:54.951Z,30.55
2023-08-05T18:08:27.818Z,30.51
2023-08-05T18:10:56.205Z,30.44
2023-08-05T18:13:25.283Z,30.40
2023-08-05T18:15:53.758Z,30.38
2023-08-05T18:18:22.207Z,30.32
2023-08-05T18:20:50.558Z,30.28
2023-08-05T18:23:18.925Z,30.28
2023-08-05T18:25:47.493Z,30.25
2023-08-05T18:28:15.885Z,30.20
2023-08-05T18:30:44.457Z,30.15
2023-08-05T18:33:15.118Z,30.14
2023-08-05T18:35:49.399Z,30.10
2023-08-05T18:38:18.084Z,30.05
2023-08-05T18:40:46.481Z,30.02
2023-08-05T18:43:14.915Z,29.95
2023-08-05T18:45:43.346Z,29.95
2023-08-05T18:48:11.848Z,29.86
2023-08-05T18:50:40.269Z,29.84
2023-08-05T18:53:08.699Z,29.80
2023-08-05T18:55:37.553Z,29.75
2023-08-05T18:58:06.086Z,29.73
2023-08-05T19:00:34.474Z,29.69
2023-08-05T19:03:02.947Z,29.63
2023-08-05T19:05:33.057Z,29.61
2023-08-05T19:08:01.574Z,29.58
2023-08-05T19:10:30.044Z,29.54
2023-08-05T19:12:58.598Z,29.51
2023-08-05T19:15:27.102Z,29.43
2023-08-05T19:17:55.454Z,29.37
2023-08-05T19:20:23.869Z,29.33
2023-08-05T19:22:52.213Z,29.29
2023-08-05T19:25:20.540Z,29.26
2023-08-05T19:27:54.757Z,29.20
2023-08-05T19:30:24.258Z,29.12
2023-08-05T19:32:55.872Z,29.06
2023-08-05T19:35:28.659Z,29.02
2023-08-05T19:37:57.095Z,29.00
2023-08-05T19:40:25.672Z,28.96
2023-08-05T19:42:54.096Z,28.94
2023-08-05T19:45:22.714Z,28.93
2023-08-05T19:47:51.235Z,28.89
2023-08-05T19:50:19.670Z,28.80
2023-08-05T19:52:48.350Z,28.74
2023-08-05T19:55:16.856Z,28.72
2023-08-05T19:57:45.274Z,28.68
2023-08-05T20:00:14.548Z,28.64
2023-08-05T20:02:44.076Z,28.61
2023-08-05T20:05:12.758Z,28.52
2023-08-05T20:07:41.341Z,28.46
2023-08-05T20:10:10.652Z,28.41
2023-08-05T20:12:40.185Z,28.37
2023-08-05T20:15:09.088Z,28.35
2023-08-05T20:17:38.788Z,28.31
2023-08-05T20:20:07.912Z,28.29
2023-08-05T20:22:36.300Z,28.23
2023-08-05T20:25:05.072Z,28.23
2023-08-05T20:27:33.452Z,28.18
2023-08-05T20:30:03.232Z,28.20
2023-08-05T20:32:31.723Z,28.19
2023-08-05T20:35:00.261Z,28.19
2023-08-05T20:37:28.940Z,28.20
2023-08-05T20:39:57.322Z,28.16
2023-08-05T20:42:25.716Z,28.18
2023-08-05T20:44:54.188Z,28.17
2023-08-05T20:47:24.926Z,28.15
2023-08-05T20:49:54.801Z,28.12
2023-08-05T20:52:23.194Z,28.10
2023-08-05T20:54:51.615Z,28.06
2023-08-05T20:57:21.156Z,28.03
2023-08-05T20:59:49.575Z,28.02
2023-08-05T21:02:19.823Z,28.00
2023-08-05T21:04:49.583Z,27.91
2023-08-05T21:07:18.072Z,27.92
2023-08-05T21:09:46.581Z,27.86
2023-08-05T21:12:18.803Z,27.79
2023-08-05T21:14:47.238Z,27.70
2023-08-05T21:17:15.689Z,27.63
2023-08-05T21:19:44.370Z,27.58
2023-08-05T21:22:12.841Z,27.53
2023-08-05T21:24:41.293Z,27.50
2023-08-05T21:27:09.661Z,27.44
2023-08-05T21:29:38.083Z,27.39
2023-08-05T21:32:07.186Z,27.36
2023-08-05T21:34:35.662Z,27.32
2023-08-05T21:37:04.492Z,27.28
2023-08-05T21:39:33.011Z,27.27
2023-08-05T21:42:01.501Z,27.24
2023-08-05T21:44:29.880Z,27.21
2023-08-05T21:46:58.326Z,27.16
2023-08-05T21:49:26.857Z,27.13
2023-08-05T21:51:55.410Z,27.10
2023-08-05T21:54:24.015Z,27.09
2023-08-05T21:56:53.726Z,27.07
2023-08-05T21:59:22.294Z,27.04
2023-08-05T22:01:50.775Z,27.03
2023-08-05T22:04:19.140Z,26.99
2023-08-05T22:06:47.553Z,26.94
2023-08-05T22:09:16.144Z,26.88
2023-08-05T22:11:44.651Z,26.86
2023-08-05T22:14:12.995Z,26.82
2023-08-05T22:16:41.454Z,26.76
2023-08-05T22:19:09.823Z,26.75
2023-08-05T22:21:38.249Z,26.74
2023-08-05T22:24:06.770Z,26.72
2023-08-05T22:26:35.164Z,26.69
2023-08-05T22:29:03.757Z,26.64
2023-08-05T22:31:32.194Z,26.62
2023-08-05T22:34:00.625Z,26.63
2023-08-05T22:36:29.043Z,26.60
2023-08-05T22:38:57.756Z,26.57
2023-08-05T22:41:26.329Z,26.51
2023-08-05T22:43:54.599Z,26.51
2023-08-05T22:46:22.950Z,26.51
2023-08-05T22:48:51.546Z,26.50
2023-08-05T22:51:19.881Z,26.47
2023-08-05T22:53:49.821Z,26.45
2023-08-05T22:56:18.182Z,26.32
2023-08-05T22:58:46.484Z,26.18
2023-08-05T23:01:14.986Z,26.13
2023-08-05T23:03:43.368Z,26.08
2023-08-05T23:06:18.833Z,26.12
2023-08-05T23:08:47.317Z,26.06
2023-08-05T23:11:15.984Z,25.98
2023-08-05T23:13:44.518Z,25.90
2023-08-05T23:16:19.213Z,25.88
2023-08-05T23:18:49.155Z,25.86
2023-08-05T23:21:17.769Z,25.84
2023-08-05T23:23:46.258Z,25.80
2023-08-05T23:26:14.810Z,25.81
2023-08-05T23:28:43.212Z,25.84
2023-08-05T23:31:11.832Z,25.84
2023-08-05T23:33:40.281Z,25.82
2023-08-05T23:36:08.859Z,25.79
2023-08-05T23:38:37.297Z,25.70
2023-08-05T23:41:05.792Z,25.66
2023-08-05T23:43:34.167Z,25.63
2023-08-05T23:46:02.522Z,25.68
2023-08-05T23:48:30.984Z,25.66
2023-08-05T23:50:59.329Z,25.63
2023-08-05T23:53:27.817Z,25.52
2023-08-05T23:55:56.251Z,25.48
2023-08-05T23:58:24.967Z,25.48
